sensor_id;sensor_type;location;lat;lon;timestamp;P1;durP1;ratioP1;P2;durP2;ratioP2
81365;SDS011;70822;51.990;22.766;2023-08-06T00:01:31;13.73;;;6.50;;
81365;SDS011;70822;51.990;22.766;2023-08-06T00:16:36;11.03;;;7.10;;
81365;SDS011;70822;51.990;22.766;2023-08-06T00:31:41;9.57;;;6.50;;
81365;SDS011;70822;51.990;22.766;2023-08-06T00:46:45;12.47;;;7.77;;
81365;SDS011;70822;51.990;22.766;2023-08-06T01:01:51;10.43;;;6.67;;
81365;SDS011;70822;51.990;22.766;2023-08-06T01:16:56;10.20;;;7.23;;
81365;SDS011;70822;51.990;22.766;2023-08-06T01:32:03;10.53;;;7.10;;
81365;SDS011;70822;51.990;22.766;2023-08-06T01:47:08;10.53;;;6.80;;
81365;SDS011;70822;51.990;22.766;2023-08-06T02:02:14;9.63;;;7.60;;
81365;SDS011;70822;51.990;22.766;2023-08-06T02:17:22;8.83;;;6.20;;
81365;SDS011;70822;51.990;22.766;2023-08-06T02:32:27;8.70;;;7.07;;
81365;SDS011;70822;51.990;22.766;2023-08-06T02:47:36;11.27;;;8.30;;
81365;SDS011;70822;51.990;22.766;2023-08-06T03:02:41;9.67;;;7.70;;
81365;SDS011;70822;51.990;22.766;2023-08-06T03:18:18;9.37;;;7.07;;
81365;SDS011;70822;51.990;22.766;2023-08-06T03:33:23;12.53;;;8.57;;
81365;SDS011;70822;51.990;22.766;2023-08-06T03:48:28;7.73;;;5.83;;
81365;SDS011;70822;51.990;22.766;2023-08-06T04:03:33;6.80;;;5.63;;
81365;SDS011;70822;51.990;22.766;2023-08-06T04:18:38;8.77;;;6.07;;
81365;SDS011;70822;51.990;22.766;2023-08-06T04:33:42;7.60;;;6.27;;
81365;SDS011;70822;51.990;22.766;2023-08-06T04:48:51;8.90;;;6.37;;
81365;SDS011;70822;51.990;22.766;2023-08-06T05:03:55;12.23;;;6.77;;
81365;SDS011;70822;51.990;22.766;2023-08-06T05:19:00;7.60;;;6.57;;
81365;SDS011;70822;51.990;22.766;2023-08-06T06:04:14;5.10;;;4.63;;
81365;SDS011;70822;51.990;22.766;2023-08-06T06:19:19;5.80;;;5.20;;
81365;SDS011;70822;51.990;22.766;2023-08-06T06:34:24;7.30;;;5.43;;
81365;SDS011;70822;51.990;22.766;2023-08-06T06:49:29;10.83;;;6.10;;
81365;SDS011;70822;51.990;22.766;2023-08-06T07:04:34;6.70;;;5.00;;
81365;SDS011;70822;51.990;22.766;2023-08-06T07:19:39;9.03;;;6.70;;
81365;SDS011;70822;51.990;22.766;2023-08-06T07:34:43;8.83;;;6.43;;
81365;SDS011;70822;51.990;22.766;2023-08-06T07:49:48;6.90;;;6.20;;
81365;SDS011;70822;51.990;22.766;2023-08-06T08:04:53;7.63;;;5.97;;
81365;SDS011;70822;51.990;22.766;2023-08-06T08:19:58;6.63;;;6.03;;
81365;SDS011;70822;51.990;22.766;2023-08-06T08:35:03;6.57;;;5.90;;
81365;SDS011;70822;51.990;22.766;2023-08-06T08:50:08;6.67;;;5.53;;
81365;SDS011;70822;51.990;22.766;2023-08-06T09:05:14;9.47;;;7.27;;
81365;SDS011;70822;51.990;22.766;2023-08-06T09:20:20;9.80;;;7.03;;
81365;SDS011;70822;51.990;22.766;2023-08-06T09:35:25;7.43;;;6.07;;
81365;SDS011;70822;51.990;22.766;2023-08-06T10:05:39;4.83;;;4.33;;
81365;SDS011;70822;51.990;22.766;2023-08-06T10:20:45;7.27;;;6.57;;
81365;SDS011;70822;51.990;22.766;2023-08-06T10:35:50;12.47;;;6.67;;
81365;SDS011;70822;51.990;22.766;2023-08-06T10:50:59;6.17;;;5.37;;
81365;SDS011;70822;51.990;22.766;2023-08-06T11:06:05;5.77;;;4.87;;
81365;SDS011;70822;51.990;22.766;2023-08-06T11:21:11;5.77;;;5.20;;
81365;SDS011;70822;51.990;22.766;2023-08-06T11:36:16;6.50;;;5.23;;
81365;SDS011;70822;51.990;22.766;2023-08-06T11:51:32;5.23;;;4.30;;
81365;SDS011;70822;51.990;22.766;2023-08-06T12:06:42;7.20;;;6.47;;
81365;SDS011;70822;51.990;22.766;2023-08-06T12:21:47;5.80;;;5.27;;
81365;SDS011;70822;51.990;22.766;2023-08-06T12:36:52;7.43;;;4.97;;
81365;SDS011;70822;51.990;22.766;2023-08-06T12:51:57;5.77;;;4.30;;
81365;SDS011;70822;51.990;22.766;2023-08-06T13:07:04;5.37;;;4.43;;
81365;SDS011;70822;51.990;22.766;2023-08-06T13:22:10;5.60;;;4.67;;
81365;SDS011;70822;51.990;22.766;2023-08-06T13:37:14;6.13;;;5.53;;
81365;SDS011;70822;51.990;22.766;2023-08-06T13:52:20;6.20;;;4.97;;
81365;SDS011;70822;51.990;22.766;2023-08-06T14:07:25;7.03;;;6.07;;
81365;SDS011;70822;51.990;22.766;2023-08-06T14:22:30;9.40;;;6.67;;
81365;SDS011;70822;51.990;22.766;2023-08-06T14:37:35;8.33;;;4.10;;
81365;SDS011;70822;51.990;22.766;2023-08-06T14:52:40;6.60;;;5.40;;
81365;SDS011;70822;51.990;22.766;2023-08-06T15:07:45;7.03;;;5.07;;
81365;SDS011;70822;51.990;22.766;2023-08-06T15:22:50;6.93;;;5.90;;
81365;SDS011;70822;51.990;22.766;2023-08-06T15:37:55;7.67;;;6.83;;
81365;SDS011;70822;51.990;22.766;2023-08-06T15:52:59;7.23;;;6.30;;
81365;SDS011;70822;51.990;22.766;2023-08-06T16:08:05;9.73;;;7.07;;
81365;SDS011;70822;51.990;22.766;2023-08-06T16:40:11;6.83;;;6.10;;
81365;SDS011;70822;51.990;22.766;2023-08-06T16:55:16;10.07;;;6.47;;
81365;SDS011;70822;51.990;22.766;2023-08-06T17:10:24;6.33;;;5.73;;
81365;SDS011;70822;51.990;22.766;2023-08-06T17:25:31;9.73;;;7.90;;
81365;SDS011;70822;51.990;22.766;2023-08-06T17:40:38;10.50;;;8.17;;
81365;SDS011;70822;51.990;22.766;2023-08-06T17:55:44;22.70;;;17.60;;
81365;SDS011;70822;51.990;22.766;2023-08-06T18:10:49;10.53;;;8.03;;
81365;SDS011;70822;51.990;22.766;2023-08-06T18:26:09;8.37;;;5.77;;
81365;SDS011;70822;51.990;22.766;2023-08-06T18:41:15;10.87;;;8.10;;
81365;SDS011;70822;51.990;22.766;2023-08-06T18:56:20;16.30;;;9.20;;
81365;SDS011;70822;51.990;22.766;2023-08-06T19:11:25;11.90;;;8.03;;
81365;SDS011;70822;51.990;22.766;2023-08-06T19:26:30;11.73;;;8.17;;
81365;SDS011;70822;51.990;22.766;2023-08-06T19:41:35;10.97;;;8.07;;
81365;SDS011;70822;51.990;22.766;2023-08-06T19:56:40;10.83;;;7.70;;
81365;SDS011;70822;51.990;22.766;2023-08-06T20:11:45;10.77;;;7.23;;
81365;SDS011;70822;51.990;22.766;2023-08-06T20:26:49;10.77;;;8.00;;
81365;SDS011;70822;51.990;22.766;2023-08-06T20:41:54;9.77;;;6.60;;
81365;SDS011;70822;51.990;22.766;2023-08-06T20:56:59;5.40;;;2.60;;
81365;SDS011;70822;51.990;22.766;2023-08-06T21:12:04;4.10;;;3.37;;
81365;SDS011;70822;51.990;22.766;2023-08-06T21:27:10;3.43;;;3.13;;
81365;SDS011;70822;51.990;22.766;2023-08-06T21:42:16;3.97;;;2.40;;
81365;SDS011;70822;51.990;22.766;2023-08-06T21:57:20;6.87;;;1.60;;
81365;SDS011;70822;51.990;22.766;2023-08-06T22:12:25;1.47;;;1.27;;
81365;SDS011;70822;51.990;22.766;2023-08-06T22:27:30;1.87;;;1.20;;
81365;SDS011;70822;51.990;22.766;2023-08-06T22:42:37;1.80;;;1.23;;
81365;SDS011;70822;51.990;22.766;2023-08-06T22:57:44;3.07;;;1.30;;
81365;SDS011;70822;51.990;22.766;2023-08-06T23:12:49;2.87;;;1.30;;
81365;SDS011;70822;51.990;22.766;2023-08-06T23:27:55;4.03;;;1.60;;
81365;SDS011;70822;51.990;22.766;2023-08-06T23:43:00;2.60;;;1.70;;
81365;SDS011;70822;51.990;22.766;2023-08-06T23:58:04;3.50;;;2.10;;
